createdAt,value
2023-01-30T00:01:16.832Z,16.61
2023-01-30T00:02:53.169Z,12.18
2023-01-30T00:04:24.791Z,13.70
2023-01-30T00:05:56.856Z,11.99
2023-01-30T00:07:28.128Z,14.65
2023-01-30T00:08:59.515Z,10.34
2023-01-30T00:10:30.767Z,11.39
2023-01-30T00:12:02.162Z,10.81
2023-01-30T00:13:33.480Z,15.29
2023-01-30T00:15:04.902Z,16.50
2023-01-30T00:16:36.345Z,14.64
2023-01-30T00:18:07.994Z,11.81
2023-01-30T00:19:39.391Z,10.88
2023-01-30T00:21:10.793Z,12.65
2023-01-30T00:23:00.770Z,12.22
2023-01-30T00:24:32.733Z,13.24
2023-01-30T00:26:13.054Z,11.75
2023-01-30T00:27:44.650Z,11.83
2023-01-30T00:29:16.045Z,9.62
2023-01-30T00:31:25.185Z,9.62
2023-01-30T00:33:34.984Z,11.53
2023-01-30T00:35:06.398Z,14.53
2023-01-30T00:36:37.727Z,13.24
2023-01-30T00:38:09.053Z,10.35
2023-01-30T00:39:40.417Z,13.63
2023-01-30T00:41:11.632Z,13.66
2023-01-30T00:42:48.102Z,12.70
2023-01-30T00:44:19.734Z,17.19
2023-01-30T00:45:51.058Z,12.90
2023-01-30T00:47:22.349Z,10.86
2023-01-30T00:48:53.878Z,9.33
2023-01-30T00:50:25.630Z,13.50
2023-01-30T00:51:57.115Z,10.73
2023-01-30T00:53:28.468Z,14.05
2023-01-30T00:54:59.926Z,13.31
2023-01-30T00:56:31.455Z,13.71
2023-01-30T00:58:02.775Z,11.10
2023-01-30T00:59:34.191Z,15.50
2023-01-30T01:01:05.490Z,20.09
2023-01-30T01:02:36.903Z,15.27
2023-01-30T01:04:09.061Z,12.92
2023-01-30T01:05:40.895Z,13.44
2023-01-30T01:07:13.785Z,12.82
2023-01-30T01:08:45.337Z,12.49
2023-01-30T01:10:17.046Z,14.65
2023-01-30T01:11:48.482Z,12.02
2023-01-30T01:13:20.079Z,10.02
2023-01-30T01:14:51.514Z,17.07
2023-01-30T01:16:23.140Z,14.47
2023-01-30T01:17:54.824Z,13.63
2023-01-30T01:19:27.051Z,17.22
2023-01-30T01:21:08.907Z,13.60
2023-01-30T01:22:40.070Z,12.64
2023-01-30T01:24:11.518Z,14.47
2023-01-30T01:25:42.699Z,10.68
2023-01-30T01:27:14.121Z,13.54
2023-01-30T01:28:45.544Z,12.01
2023-01-30T01:30:17.106Z,13.22
2023-01-30T01:31:48.862Z,12.56
2023-01-30T01:33:20.271Z,14.62
2023-01-30T01:34:51.923Z,10.96
2023-01-30T01:36:51.607Z,11.61
2023-01-30T01:38:24.098Z,12.76
2023-01-30T01:39:55.439Z,11.86
2023-01-30T01:41:26.930Z,12.92
2023-01-30T01:42:58.372Z,16.31
2023-01-30T01:44:29.856Z,14.43
2023-01-30T01:46:01.200Z,13.85
2023-01-30T01:47:32.632Z,9.95
2023-01-30T01:49:03.913Z,12.84
2023-01-30T01:50:35.157Z,15.52
2023-01-30T01:52:06.360Z,17.28
2023-01-30T01:53:38.021Z,15.48
2023-01-30T01:55:09.328Z,14.41
2023-01-30T01:56:41.001Z,10.28
2023-01-30T01:58:12.362Z,14.32
2023-01-30T01:59:43.715Z,11.50
2023-01-30T02:01:14.941Z,11.16
2023-01-30T02:02:46.139Z,12.27
2023-01-30T02:04:17.570Z,10.86
2023-01-30T02:05:48.785Z,11.19
2023-01-30T02:07:25.027Z,12.58
2023-01-30T02:08:56.544Z,13.10
2023-01-30T02:10:27.851Z,12.17
2023-01-30T02:11:59.218Z,15.02
2023-01-30T02:13:30.408Z,12.47
2023-01-30T02:15:01.760Z,12.65
2023-01-30T02:16:33.061Z,15.44
2023-01-30T02:18:09.303Z,12.31
2023-01-30T02:19:40.622Z,15.75
2023-01-30T02:21:11.919Z,13.43
2023-01-30T02:22:43.167Z,12.27
2023-01-30T02:24:14.480Z,13.22
2023-01-30T02:25:45.814Z,9.56
2023-01-30T02:27:17.124Z,9.56
2023-01-30T02:28:48.963Z,13.73
2023-01-30T02:30:20.292Z,11.65
2023-01-30T02:31:51.582Z,13.81
2023-01-30T02:33:22.816Z,16.52
2023-01-30T02:34:59.205Z,12.92
2023-01-30T02:36:30.614Z,10.55
2023-01-30T02:38:01.867Z,15.63
2023-01-30T02:39:33.496Z,17.86
2023-01-30T02:41:04.685Z,17.79
2023-01-30T02:42:36.039Z,15.21
2023-01-30T02:44:07.356Z,11.87
2023-01-30T02:45:38.865Z,16.35
2023-01-30T02:47:10.194Z,14.13
2023-01-30T02:48:41.635Z,15.34
2023-01-30T02:50:12.950Z,16.92
2023-01-30T02:51:44.191Z,10.97
2023-01-30T02:53:15.607Z,12.05
2023-01-30T02:54:47.192Z,12.86
2023-01-30T02:56:18.761Z,19.52
2023-01-30T02:57:51.435Z,14.87
2023-01-30T02:59:22.709Z,16.35
2023-01-30T03:00:54.175Z,16.15
2023-01-30T03:02:25.603Z,15.61
2023-01-30T03:03:57.067Z,20.92
2023-01-30T03:05:28.573Z,16.42
2023-01-30T03:06:59.967Z,15.97
2023-01-30T03:08:31.351Z,13.59
2023-01-30T03:10:02.974Z,18.24
2023-01-30T03:11:34.411Z,14.28
2023-01-30T03:13:05.829Z,13.89
2023-01-30T03:14:37.532Z,17.66
2023-01-30T03:16:08.817Z,16.06
2023-01-30T03:17:40.199Z,11.87
2023-01-30T03:19:11.518Z,11.50
2023-01-30T03:20:43.635Z,14.00
2023-01-30T03:22:14.905Z,11.19
2023-01-30T03:23:46.188Z,11.01
2023-01-30T03:25:22.856Z,13.46
2023-01-30T03:26:54.197Z,14.32
2023-01-30T03:28:25.574Z,11.11
2023-01-30T03:29:56.894Z,10.67
2023-01-30T03:31:28.604Z,12.54
2023-01-30T03:32:59.875Z,11.11
2023-01-30T03:34:31.414Z,11.43
2023-01-30T03:36:02.990Z,13.04
2023-01-30T03:37:34.217Z,14.43
2023-01-30T03:39:05.443Z,11.20
2023-01-30T03:40:37.016Z,16.40
2023-01-30T03:42:08.522Z,9.58
2023-01-30T03:43:40.200Z,10.35
2023-01-30T03:45:11.598Z,11.63
2023-01-30T03:46:42.902Z,13.30
2023-01-30T03:48:14.113Z,11.40
2023-01-30T03:49:45.762Z,9.63
2023-01-30T03:51:18.227Z,9.31
2023-01-30T03:52:49.647Z,10.46
2023-01-30T03:54:21.008Z,9.24
2023-01-30T03:55:52.252Z,13.10
2023-01-30T03:57:23.484Z,9.08
2023-01-30T03:58:54.914Z,10.99
2023-01-30T04:00:26.188Z,8.73
2023-01-30T04:01:57.692Z,9.23
2023-01-30T04:03:29.095Z,11.43
2023-01-30T04:05:00.351Z,10.22
2023-01-30T04:06:31.779Z,11.51
2023-01-30T04:08:03.025Z,10.48
2023-01-30T04:09:34.402Z,10.98
2023-01-30T04:11:05.588Z,11.35
2023-01-30T04:12:36.880Z,11.77
2023-01-30T04:14:08.394Z,11.65
2023-01-30T04:15:39.631Z,13.19
2023-01-30T04:17:11.226Z,10.49
2023-01-30T04:18:42.499Z,10.54
2023-01-30T04:20:13.750Z,10.46
2023-01-30T04:21:45.109Z,10.62
2023-01-30T04:23:16.560Z,8.20
2023-01-30T04:24:47.902Z,9.05
2023-01-30T04:26:19.794Z,11.00
2023-01-30T04:27:51.125Z,9.14
2023-01-30T04:29:22.379Z,10.29
2023-01-30T04:30:53.783Z,8.61
2023-01-30T04:32:25.158Z,10.85
2023-01-30T04:33:56.536Z,10.42
2023-01-30T04:35:27.838Z,13.04
2023-01-30T04:36:59.218Z,11.49
2023-01-30T04:38:30.878Z,10.66
2023-01-30T04:40:02.286Z,11.07
2023-01-30T04:41:33.680Z,10.98
2023-01-30T04:43:04.962Z,8.19
2023-01-30T04:44:36.166Z,10.53
2023-01-30T04:46:07.509Z,13.82
2023-01-30T04:47:38.812Z,9.88
2023-01-30T04:49:10.158Z,8.37
2023-01-30T04:50:41.379Z,10.89
2023-01-30T04:52:12.593Z,9.47
2023-01-30T04:53:43.871Z,9.51
2023-01-30T04:55:15.242Z,8.14
2023-01-30T04:56:46.522Z,6.87
2023-01-30T04:58:17.934Z,7.23
2023-01-30T04:59:49.391Z,8.05
2023-01-30T05:01:20.873Z,8.99
2023-01-30T05:02:52.645Z,9.84
2023-01-30T05:04:23.947Z,9.76
2023-01-30T05:05:55.550Z,10.16
2023-01-30T05:07:27.025Z,9.04
2023-01-30T05:08:58.474Z,8.64
2023-01-30T05:10:29.793Z,8.33
2023-01-30T05:12:01.270Z,6.32
2023-01-30T05:13:32.566Z,10.13
2023-01-30T05:15:03.718Z,10.69
2023-01-30T05:16:34.898Z,9.82
2023-01-30T05:18:11.149Z,7.73
2023-01-30T05:19:42.725Z,8.85
2023-01-30T05:21:14.036Z,9.22
2023-01-30T05:22:45.498Z,8.80
2023-01-30T05:24:16.756Z,10.03
2023-01-30T05:26:18.547Z,8.92
2023-01-30T05:27:50.159Z,7.03
2023-01-30T05:29:21.538Z,7.11
2023-01-30T05:30:52.808Z,7.12
2023-01-30T05:32:24.110Z,6.89
2023-01-30T05:33:55.473Z,7.76
2023-01-30T05:35:26.733Z,7.13
2023-01-30T05:36:59.225Z,7.98
2023-01-30T05:38:30.445Z,6.80
2023-01-30T05:40:01.701Z,8.04
2023-01-30T05:41:33.226Z,5.95
2023-01-30T05:43:04.739Z,6.84
2023-01-30T05:44:36.029Z,9.61
2023-01-30T05:46:07.344Z,5.95
2023-01-30T05:47:38.532Z,5.82
2023-01-30T05:49:09.872Z,6.46
2023-01-30T05:50:41.239Z,6.67
2023-01-30T05:52:12.988Z,5.92
2023-01-30T05:53:44.263Z,6.42
2023-01-30T05:55:16.223Z,5.52
2023-01-30T05:56:48.084Z,7.21
2023-01-30T05:58:19.329Z,6.80
2023-01-30T05:59:50.807Z,6.79
2023-01-30T06:01:22.067Z,6.07
2023-01-30T06:02:53.406Z,7.37
2023-01-30T06:04:24.627Z,8.80
2023-01-30T06:05:57.068Z,6.97
2023-01-30T06:07:28.347Z,7.63
2023-01-30T06:08:59.576Z,7.75
2023-01-30T06:10:30.725Z,6.85
2023-01-30T06:12:01.970Z,6.17
2023-01-30T06:13:33.267Z,7.38
2023-01-30T06:15:04.492Z,5.25
2023-01-30T06:16:35.782Z,6.38
2023-01-30T06:18:08.292Z,8.69
2023-01-30T06:19:39.553Z,7.46
2023-01-30T06:21:10.876Z,8.74
2023-01-30T06:22:42.263Z,11.01
2023-01-30T06:24:13.595Z,9.65
2023-01-30T06:25:45.166Z,13.47
2023-01-30T06:27:16.549Z,9.72
2023-01-30T06:28:47.885Z,7.38
2023-01-30T06:30:19.321Z,8.59
2023-01-30T06:31:50.807Z,9.57
2023-01-30T06:33:22.559Z,11.55
2023-01-30T06:34:54.021Z,7.07
2023-01-30T06:36:25.487Z,9.05
2023-01-30T06:37:57.001Z,10.38
2023-01-30T06:39:28.527Z,11.16
2023-01-30T06:41:04.898Z,8.45
2023-01-30T06:42:36.072Z,6.85
2023-01-30T06:44:07.605Z,9.62
2023-01-30T06:45:38.789Z,8.71
2023-01-30T06:47:10.282Z,9.87
2023-01-30T06:48:41.534Z,13.52
2023-01-30T06:50:13.276Z,11.13
2023-01-30T06:51:44.678Z,13.05
2023-01-30T06:53:18.337Z,10.19
2023-01-30T06:54:51.639Z,13.13
2023-01-30T06:56:22.853Z,9.62
2023-01-30T06:57:54.200Z,14.68
2023-01-30T06:59:25.456Z,13.74
2023-01-30T07:00:57.069Z,14.16
2023-01-30T07:02:28.787Z,12.56
2023-01-30T07:04:00.263Z,12.03
2023-01-30T07:05:31.532Z,9.17
2023-01-30T07:07:02.755Z,12.66
2023-01-30T07:08:34.151Z,15.76
2023-01-30T07:10:08.582Z,13.34
2023-01-30T07:11:40.194Z,12.73
2023-01-30T07:13:11.630Z,12.92
2023-01-30T07:14:42.917Z,10.74
2023-01-30T07:16:14.259Z,8.11
2023-01-30T07:17:45.559Z,8.30
2023-01-30T07:19:16.829Z,11.84
2023-01-30T07:20:48.313Z,8.82
2023-01-30T07:22:19.770Z,12.27
2023-01-30T07:23:51.037Z,17.69
2023-01-30T07:25:22.301Z,15.63
2023-01-30T07:26:53.575Z,16.12
2023-01-30T07:28:24.949Z,11.47
2023-01-30T07:30:01.348Z,14.75
2023-01-30T07:31:32.616Z,11.46
2023-01-30T07:33:03.938Z,8.80
2023-01-30T07:34:35.162Z,9.67
2023-01-30T07:36:06.656Z,15.42
2023-01-30T07:37:38.213Z,12.01
2023-01-30T07:39:09.468Z,13.48
2023-01-30T07:40:46.091Z,13.76
2023-01-30T07:42:17.428Z,10.95
2023-01-30T07:43:48.767Z,11.71
2023-01-30T07:45:20.212Z,14.12
2023-01-30T07:46:51.700Z,11.84
2023-01-30T07:48:23.109Z,11.34
2023-01-30T07:49:54.524Z,11.25
2023-01-30T07:51:25.782Z,13.62
2023-01-30T07:52:57.091Z,11.82
2023-01-30T07:54:28.463Z,8.78
2023-01-30T07:55:59.693Z,9.52
2023-01-30T07:57:31.404Z,7.47
2023-01-30T07:59:02.745Z,8.78
2023-01-30T08:00:34.053Z,7.72
2023-01-30T08:02:05.392Z,9.07
2023-01-30T08:03:36.629Z,9.32
2023-01-30T08:05:07.879Z,6.98
2023-01-30T08:06:39.346Z,6.55
2023-01-30T08:08:10.791Z,8.90
2023-01-30T08:09:42.017Z,7.54
2023-01-30T08:11:13.441Z,5.54
2023-01-30T08:12:44.938Z,7.25
2023-01-30T08:14:16.530Z,6.19
2023-01-30T08:15:47.760Z,5.80
2023-01-30T08:17:19.050Z,5.59
2023-01-30T08:18:50.417Z,5.44
2023-01-30T08:20:22.007Z,5.46
2023-01-30T08:21:53.648Z,5.54
2023-01-30T08:23:25.317Z,5.10
2023-01-30T08:24:56.742Z,4.53
2023-01-30T08:26:28.108Z,3.88
2023-01-30T08:27:59.510Z,4.82
2023-01-30T08:29:31.130Z,3.96
2023-01-30T08:31:02.498Z,3.53
2023-01-30T08:32:33.996Z,4.10
2023-01-30T08:34:05.679Z,4.46
2023-01-30T08:35:36.947Z,3.03
2023-01-30T08:37:08.414Z,2.93
2023-01-30T08:38:39.829Z,3.71
2023-01-30T08:40:11.205Z,3.11
2023-01-30T08:41:42.578Z,2.75
2023-01-30T08:43:13.972Z,4.00
2023-01-30T08:44:45.247Z,3.76
2023-01-30T08:46:16.589Z,4.02
2023-01-30T08:47:48.180Z,4.11
2023-01-30T08:49:19.767Z,2.90
2023-01-30T08:50:51.194Z,2.77
2023-01-30T08:52:22.412Z,2.98
2023-01-30T08:53:53.704Z,3.50
2023-01-30T08:55:24.990Z,3.35
2023-01-30T08:56:56.417Z,2.84
2023-01-30T08:58:27.760Z,2.62
2023-01-30T08:59:59.149Z,2.61
2023-01-30T09:01:30.682Z,2.04
2023-01-30T09:03:02.428Z,2.45
2023-01-30T09:04:33.664Z,2.36
2023-01-30T09:06:04.901Z,2.18
2023-01-30T09:07:36.507Z,2.28
2023-01-30T09:09:07.863Z,2.41
2023-01-30T09:10:39.402Z,2.79
2023-01-30T09:12:12.092Z,2.41
2023-01-30T09:13:43.883Z,3.25
2023-01-30T09:15:15.481Z,3.80
2023-01-30T09:16:46.803Z,3.50
2023-01-30T09:18:18.272Z,3.12
2023-01-30T09:19:49.801Z,3.02
2023-01-30T09:21:21.205Z,2.49
2023-01-30T09:22:52.482Z,2.33
2023-01-30T09:24:23.945Z,2.97
2023-01-30T09:25:55.181Z,2.56
2023-01-30T09:27:26.552Z,2.81
2023-01-30T09:28:57.837Z,2.73
2023-01-30T09:30:29.366Z,2.92
2023-01-30T09:32:00.834Z,3.45
2023-01-30T09:33:32.280Z,3.31
2023-01-30T09:35:03.704Z,3.13
2023-01-30T09:36:35.361Z,2.73
2023-01-30T09:38:06.683Z,2.61
2023-01-30T09:39:38.184Z,2.70
2023-01-30T09:41:09.620Z,2.75
2023-01-30T09:42:40.853Z,3.09
2023-01-30T09:44:12.174Z,2.86
2023-01-30T09:45:43.463Z,3.03
2023-01-30T09:47:14.750Z,3.05
2023-01-30T09:48:47.314Z,2.62
2023-01-30T09:50:18.992Z,2.09
2023-01-30T09:51:50.638Z,2.18
2023-01-30T09:53:21.948Z,2.96
2023-01-30T09:54:53.323Z,3.33
2023-01-30T09:56:24.929Z,3.34
2023-01-30T09:57:56.358Z,3.00
2023-01-30T09:59:27.826Z,3.38
2023-01-30T10:00:59.222Z,3.48
2023-01-30T10:02:30.594Z,3.72
2023-01-30T10:04:36.127Z,2.90
2023-01-30T10:06:07.393Z,3.66
2023-01-30T10:07:38.768Z,2.95
2023-01-30T10:09:10.618Z,2.73
2023-01-30T10:11:13.748Z,3.20
2023-01-30T10:12:45.613Z,2.33
2023-01-30T10:14:17.327Z,2.60
2023-01-30T10:15:48.749Z,2.79
2023-01-30T10:17:20.079Z,3.49
2023-01-30T10:18:51.365Z,3.39
2023-01-30T10:20:22.977Z,2.91
2023-01-30T10:21:54.631Z,2.97
2023-01-30T10:23:26.159Z,2.85
2023-01-30T10:24:57.532Z,2.78
2023-01-30T10:26:29.007Z,2.83
2023-01-30T10:28:00.666Z,3.55
2023-01-30T10:29:32.069Z,3.22
2023-01-30T10:31:04.509Z,2.93
2023-01-30T10:32:35.929Z,2.72
2023-01-30T10:34:07.584Z,2.47
2023-01-30T10:35:38.895Z,2.82
2023-01-30T10:37:10.152Z,2.88
2023-01-30T10:38:42.659Z,2.69
2023-01-30T10:40:13.909Z,2.29
2023-01-30T10:41:45.241Z,2.57
2023-01-30T10:43:16.519Z,2.47
2023-01-30T10:44:48.137Z,2.88
2023-01-30T10:46:19.646Z,2.42
2023-01-30T10:47:50.890Z,2.36
2023-01-30T10:49:22.353Z,2.77
2023-01-30T10:50:58.854Z,2.56
2023-01-30T10:52:30.056Z,2.88
2023-01-30T10:54:01.339Z,2.58
2023-01-30T10:55:38.635Z,2.93
2023-01-30T10:57:09.919Z,3.23
2023-01-30T10:58:41.324Z,2.65
2023-01-30T11:00:12.683Z,2.92
2023-01-30T11:01:44.245Z,2.04
2023-01-30T11:03:15.778Z,3.02
2023-01-30T11:04:47.666Z,3.42
2023-01-30T11:06:19.184Z,2.90
2023-01-30T11:07:50.745Z,3.07
2023-01-30T11:09:24.390Z,2.73
2023-01-30T11:10:56.946Z,3.30
2023-01-30T11:12:28.335Z,2.77
2023-01-30T11:13:59.668Z,3.28
2023-01-30T11:15:31.041Z,3.27
2023-01-30T11:17:07.437Z,3.01
2023-01-30T11:19:18.235Z,3.09
2023-01-30T11:20:50.662Z,3.55
2023-01-30T11:22:22.219Z,3.25
2023-01-30T11:23:53.867Z,2.53
2023-01-30T11:25:25.384Z,3.29
2023-01-30T11:26:56.761Z,3.05
2023-01-30T11:28:28.197Z,3.18
2023-01-30T11:29:59.632Z,2.75
2023-01-30T11:31:40.849Z,3.15
2023-01-30T11:33:12.943Z,3.34
2023-01-30T11:34:44.388Z,3.07
2023-01-30T11:36:15.657Z,3.08
2023-01-30T11:37:46.979Z,2.74
2023-01-30T11:39:23.378Z,3.24
2023-01-30T11:40:54.634Z,2.38
2023-01-30T11:42:26.003Z,2.64
2023-01-30T11:43:57.328Z,3.02
2023-01-30T11:45:28.688Z,2.73
2023-01-30T11:47:00.117Z,3.23
2023-01-30T11:48:34.085Z,2.85
2023-01-30T11:50:50.273Z,2.18
2023-01-30T11:52:21.727Z,2.98
2023-01-30T11:53:52.971Z,3.49
2023-01-30T11:55:24.442Z,2.67
2023-01-30T11:56:55.959Z,2.99
2023-01-30T11:58:27.338Z,2.51
2023-01-30T11:59:58.610Z,2.96
2023-01-30T12:01:29.919Z,3.10
2023-01-30T12:03:01.327Z,2.67
2023-01-30T12:04:32.770Z,3.04
2023-01-30T12:06:04.196Z,3.12
2023-01-30T12:07:35.426Z,3.62
2023-01-30T12:09:06.718Z,3.87
2023-01-30T12:10:38.100Z,4.29
2023-01-30T12:12:09.543Z,3.93
2023-01-30T12:13:41.044Z,4.14
2023-01-30T12:15:12.643Z,3.83
2023-01-30T12:16:44.196Z,4.13
2023-01-30T12:18:15.474Z,3.90
2023-01-30T12:19:46.896Z,3.18
2023-01-30T12:21:18.156Z,3.20
2023-01-30T12:22:49.628Z,3.82
2023-01-30T12:24:21.211Z,3.52
2023-01-30T12:25:52.579Z,3.58
2023-01-30T12:27:23.861Z,3.60
2023-01-30T12:28:55.331Z,3.17
2023-01-30T12:30:26.741Z,2.38
2023-01-30T12:31:58.010Z,2.79
2023-01-30T12:33:29.436Z,3.24
2023-01-30T12:35:01.048Z,2.84
2023-01-30T12:36:32.346Z,2.74
2023-01-30T12:38:03.651Z,2.14
2023-01-30T12:39:34.959Z,2.76
2023-01-30T12:41:06.434Z,2.70
2023-01-30T12:42:37.816Z,2.90
2023-01-30T12:44:09.089Z,3.84
2023-01-30T12:45:40.579Z,3.35
2023-01-30T12:47:11.940Z,3.06
2023-01-30T12:48:48.440Z,2.92
2023-01-30T12:50:20.196Z,3.18
2023-01-30T12:51:51.515Z,2.45
2023-01-30T12:53:22.862Z,2.47
2023-01-30T12:54:54.286Z,2.35
2023-01-30T12:56:25.510Z,2.69
2023-01-30T12:57:56.895Z,2.79
2023-01-30T12:59:28.285Z,2.75
2023-01-30T13:00:59.585Z,2.56
2023-01-30T13:02:30.935Z,2.62
2023-01-30T13:04:02.433Z,3.00
2023-01-30T13:05:33.831Z,3.25
2023-01-30T13:07:05.216Z,2.85
2023-01-30T13:08:36.506Z,3.51
2023-01-30T13:10:08.141Z,2.39
2023-01-30T13:11:39.614Z,3.37
2023-01-30T13:13:10.817Z,3.27
2023-01-30T13:14:47.155Z,2.93
2023-01-30T13:16:18.540Z,3.35
2023-01-30T13:17:49.820Z,2.91
2023-01-30T13:19:23.140Z,3.26
2023-01-30T13:20:57.645Z,3.04
2023-01-30T13:22:31.092Z,3.56
2023-01-30T13:24:02.363Z,2.86
2023-01-30T13:25:33.723Z,2.88
2023-01-30T13:27:05.637Z,3.16
2023-01-30T13:28:37.070Z,3.52
2023-01-30T13:30:08.542Z,2.37
2023-01-30T13:31:40.271Z,2.97
2023-01-30T13:33:11.757Z,3.59
2023-01-30T13:34:43.012Z,2.76
2023-01-30T13:36:14.384Z,3.34
2023-01-30T13:37:50.811Z,3.08
2023-01-30T13:39:22.139Z,2.83
2023-01-30T13:40:54.345Z,3.10
2023-01-30T13:42:26.018Z,3.22
2023-01-30T13:43:57.307Z,2.79
2023-01-30T13:45:28.781Z,2.73
2023-01-30T13:47:00.269Z,2.89
2023-01-30T13:48:31.982Z,2.41
2023-01-30T13:50:03.243Z,2.90
2023-01-30T13:51:34.522Z,2.83
2023-01-30T13:53:05.877Z,2.75
2023-01-30T13:54:37.304Z,3.38
2023-01-30T13:56:16.253Z,3.19
2023-01-30T13:57:59.692Z,3.79
2023-01-30T13:59:31.000Z,3.30
2023-01-30T14:01:02.378Z,2.84
2023-01-30T14:02:33.701Z,3.20
2023-01-30T14:04:05.266Z,2.48
2023-01-30T14:05:49.353Z,2.64
2023-01-30T14:07:21.037Z,2.49
2023-01-30T14:08:52.453Z,3.22
2023-01-30T14:10:28.931Z,3.16
2023-01-30T14:12:05.195Z,2.95
2023-01-30T14:13:36.511Z,3.17
2023-01-30T14:15:07.751Z,2.34
2023-01-30T14:16:39.171Z,2.61
2023-01-30T14:18:10.501Z,3.13
2023-01-30T14:19:41.983Z,2.58
2023-01-30T14:21:13.491Z,2.96
2023-01-30T14:22:45.022Z,2.59
2023-01-30T14:24:17.491Z,3.35
2023-01-30T14:25:48.860Z,2.66
2023-01-30T14:27:20.080Z,2.72
2023-01-30T14:28:51.387Z,2.90
2023-01-30T14:30:22.852Z,3.12
2023-01-30T14:31:54.412Z,2.97
2023-01-30T14:33:25.831Z,2.55
2023-01-30T14:34:57.124Z,3.24
2023-01-30T14:36:30.174Z,3.64
2023-01-30T14:38:01.471Z,3.36
2023-01-30T14:39:32.731Z,2.63
2023-01-30T14:41:04.024Z,2.47
2023-01-30T14:42:35.292Z,3.68
2023-01-30T14:44:06.602Z,2.70
2023-01-30T14:45:37.955Z,3.34
2023-01-30T14:47:40.371Z,2.99
2023-01-30T14:49:18.894Z,2.95
2023-01-30T14:50:50.304Z,2.72
2023-01-30T14:52:21.895Z,3.23
2023-01-30T14:53:58.399Z,3.42
2023-01-30T14:55:30.012Z,3.38
2023-01-30T14:57:01.652Z,3.13
2023-01-30T14:58:32.950Z,2.85
2023-01-30T15:00:15.913Z,3.03
2023-01-30T15:01:48.608Z,2.80
2023-01-30T15:03:25.056Z,3.09
2023-01-30T15:04:56.352Z,4.19
2023-01-30T15:06:27.745Z,3.63
2023-01-30T15:07:59.101Z,3.30
2023-01-30T15:09:30.754Z,2.96
2023-01-30T15:11:02.380Z,3.45
2023-01-30T15:12:33.700Z,3.39
2023-01-30T15:14:06.240Z,3.72
2023-01-30T15:15:37.572Z,3.07
2023-01-30T15:17:08.832Z,3.09
2023-01-30T15:18:40.222Z,2.56
2023-01-30T15:20:11.703Z,2.71
2023-01-30T15:21:48.316Z,2.75
2023-01-30T15:23:19.622Z,3.03
2023-01-30T15:24:50.921Z,2.88
2023-01-30T15:26:22.225Z,2.29
2023-01-30T15:27:53.466Z,3.26
2023-01-30T15:29:25.193Z,3.62
2023-01-30T15:30:56.811Z,3.41
2023-01-30T15:32:28.223Z,3.61
2023-01-30T15:33:59.519Z,3.83
2023-01-30T15:35:31.981Z,3.20
2023-01-30T15:37:03.320Z,3.14
2023-01-30T15:38:34.760Z,3.20
2023-01-30T15:40:06.091Z,3.99
2023-01-30T15:41:38.141Z,3.52
2023-01-30T15:43:10.254Z,3.18
2023-01-30T15:44:41.536Z,3.89
2023-01-30T15:46:12.829Z,3.55
2023-01-30T15:47:46.519Z,4.19
2023-01-30T15:49:17.957Z,4.08
2023-01-30T15:50:49.819Z,3.87
2023-01-30T15:52:21.392Z,3.67
2023-01-30T15:53:53.395Z,3.86
2023-01-30T15:55:24.641Z,3.76
2023-01-30T15:56:56.224Z,4.01
2023-01-30T15:58:27.590Z,4.01
2023-01-30T16:00:14.021Z,3.41
2023-01-30T16:01:55.337Z,3.97
2023-01-30T16:03:36.809Z,4.04
2023-01-30T16:05:13.264Z,4.09
2023-01-30T16:06:50.236Z,3.90
2023-01-30T16:08:21.639Z,3.84
2023-01-30T16:10:06.431Z,3.96
2023-01-30T16:11:38.818Z,3.34
2023-01-30T16:13:21.109Z,3.37
2023-01-30T16:14:52.536Z,3.98
2023-01-30T16:16:49.078Z,3.89
2023-01-30T16:18:20.694Z,4.21
2023-01-30T16:19:57.395Z,4.09
2023-01-30T16:21:29.151Z,4.41
2023-01-30T16:23:15.745Z,4.22
2023-01-30T16:24:47.096Z,4.01
2023-01-30T16:26:28.904Z,3.25
2023-01-30T16:28:01.671Z,3.58
2023-01-30T16:29:32.939Z,4.26
2023-01-30T16:32:55.544Z,2.98
2023-01-30T16:34:27.177Z,3.41
2023-01-30T16:35:58.661Z,3.49
2023-01-30T16:37:29.969Z,3.83
2023-01-30T16:39:11.225Z,3.84
2023-01-30T16:40:57.557Z,4.26
2023-01-30T16:42:43.879Z,4.18
2023-01-30T16:44:25.233Z,3.78
2023-01-30T16:46:01.740Z,3.84
2023-01-30T16:47:33.115Z,3.42
2023-01-30T16:49:04.466Z,3.43
2023-01-30T16:50:36.043Z,3.52
2023-01-30T16:52:07.729Z,3.81
2023-01-30T16:53:39.241Z,3.69
2023-01-30T16:55:10.754Z,4.90
2023-01-30T16:56:42.158Z,3.98
2023-01-30T16:58:33.484Z,4.05
2023-01-30T17:00:04.875Z,4.03
2023-01-30T17:01:41.542Z,4.13
2023-01-30T17:03:13.267Z,4.55
2023-01-30T17:04:44.604Z,4.43
2023-01-30T17:06:16.044Z,4.36
2023-01-30T17:07:52.622Z,4.62
2023-01-30T17:09:24.020Z,3.92
2023-01-30T17:11:10.357Z,3.36
2023-01-30T17:12:56.718Z,3.75
2023-01-30T17:14:28.081Z,3.90
2023-01-30T17:15:59.547Z,4.17
2023-01-30T17:17:30.979Z,3.45
2023-01-30T17:19:02.366Z,3.92
2023-01-30T17:20:43.704Z,3.18
2023-01-30T17:22:20.107Z,3.32
2023-01-30T17:23:56.431Z,3.69
2023-01-30T17:25:46.613Z,4.16
2023-01-30T17:27:28.422Z,3.86
2023-01-30T17:28:59.827Z,4.08
2023-01-30T17:30:41.900Z,4.47
2023-01-30T17:32:13.707Z,3.84
2023-01-30T17:34:10.355Z,4.11
2023-01-30T17:35:41.607Z,4.31
2023-01-30T17:37:13.071Z,4.02
2023-01-30T17:38:44.508Z,3.66
2023-01-30T17:40:25.877Z,3.72
2023-01-30T17:42:07.251Z,4.14
2023-01-30T17:43:49.917Z,4.04
2023-01-30T17:45:22.221Z,5.03
2023-01-30T17:47:09.120Z,4.89
2023-01-30T17:48:55.601Z,4.05
2023-01-30T17:50:48.329Z,4.18
2023-01-30T17:52:19.724Z,3.95
2023-01-30T17:54:06.388Z,3.96
2023-01-30T17:55:47.695Z,3.46
2023-01-30T17:57:24.294Z,4.28
2023-01-30T17:58:55.623Z,3.84
2023-01-30T18:00:31.873Z,4.13
2023-01-30T18:02:28.185Z,3.85
2023-01-30T18:04:00.067Z,4.05
2023-01-30T18:05:43.105Z,4.44
2023-01-30T18:08:00.819Z,4.75
2023-01-30T18:09:33.222Z,4.81
2023-01-30T18:11:15.725Z,3.62
2023-01-30T18:13:00.414Z,3.99
2023-01-30T18:14:37.069Z,4.48
2023-01-30T18:16:08.518Z,3.49
2023-01-30T18:17:47.404Z,4.62
2023-01-30T18:19:35.371Z,4.75
2023-01-30T18:21:08.944Z,4.77
2023-01-30T18:22:41.476Z,4.47
2023-01-30T18:24:13.169Z,4.16
2023-01-30T18:28:15.135Z,4.75
2023-01-30T18:29:47.277Z,5.04
2023-01-30T18:31:18.847Z,3.17
2023-01-30T18:32:53.322Z,4.11
2023-01-30T18:34:25.320Z,3.86
2023-01-30T18:35:56.822Z,3.75
2023-01-30T18:37:28.555Z,4.54
2023-01-30T18:39:14.410Z,4.73
2023-01-30T18:40:45.838Z,4.57
2023-01-30T18:42:17.441Z,4.95
2023-01-30T18:43:48.727Z,4.09
2023-01-30T18:45:19.968Z,3.78
2023-01-30T18:47:01.318Z,4.17
2023-01-30T18:48:32.742Z,4.25
2023-01-30T18:50:14.147Z,4.11
2023-01-30T18:51:45.933Z,3.61
2023-01-30T18:53:28.188Z,3.72
2023-01-30T18:54:59.578Z,3.72
2023-01-30T18:56:31.025Z,4.27
2023-01-30T18:58:02.677Z,4.73
2023-01-30T18:59:34.401Z,4.23
2023-01-30T19:01:05.821Z,3.10
2023-01-30T19:02:37.554Z,4.15
2023-01-30T19:04:09.010Z,4.17
2023-01-30T19:05:40.585Z,3.46
2023-01-30T19:07:18.135Z,3.32
2023-01-30T19:09:18.784Z,3.72
2023-01-30T19:10:50.368Z,3.40
2023-01-30T19:12:21.780Z,2.68
2023-01-30T19:13:53.254Z,4.01
2023-01-30T19:15:24.680Z,4.70
2023-01-30T19:16:56.024Z,4.43
2023-01-30T19:18:27.591Z,3.75
2023-01-30T19:19:58.843Z,3.69
2023-01-30T19:21:30.334Z,3.73
2023-01-30T19:23:06.795Z,3.95
2023-01-30T19:24:49.611Z,3.88
2023-01-30T19:26:21.390Z,4.22
2023-01-30T19:27:54.469Z,4.31
2023-01-30T19:29:27.108Z,4.73
2023-01-30T19:30:59.025Z,3.47
2023-01-30T19:32:32.435Z,3.65
2023-01-30T19:34:03.733Z,2.85
2023-01-30T19:35:35.202Z,4.09
2023-01-30T19:37:06.791Z,3.36
2023-01-30T19:38:53.294Z,3.26
2023-01-30T19:40:44.115Z,3.89
2023-01-30T19:42:26.455Z,3.53
2023-01-30T19:44:18.207Z,4.42
2023-01-30T19:45:49.482Z,4.50
2023-01-30T19:47:21.228Z,3.87
2023-01-30T19:48:52.921Z,4.49
2023-01-30T19:50:34.526Z,4.22
2023-01-30T19:52:07.841Z,4.44
2023-01-30T19:53:39.150Z,3.63
2023-01-30T19:55:10.396Z,6.34
2023-01-30T19:57:01.879Z,5.26
2023-01-30T20:00:59.611Z,6.20
2023-01-30T20:02:31.358Z,5.68
2023-01-30T20:04:13.985Z,6.36
2023-01-30T20:05:56.928Z,7.36
2023-01-30T20:07:28.305Z,5.92
2023-01-30T20:09:09.907Z,5.62
2023-01-30T20:10:54.281Z,4.75
2023-01-30T20:12:25.719Z,4.82
2023-01-30T20:13:57.235Z,4.55
2023-01-30T20:15:28.704Z,5.33
2023-01-30T20:17:00.544Z,4.91
2023-01-30T20:18:32.429Z,4.68
2023-01-30T20:20:03.942Z,4.54
2023-01-30T20:21:35.470Z,3.89
2023-01-30T20:23:06.812Z,4.71
2023-01-30T20:24:38.433Z,5.47
2023-01-30T20:26:09.721Z,4.70
2023-01-30T20:27:41.258Z,4.01
2023-01-30T20:29:12.582Z,4.66
2023-01-30T20:30:44.642Z,4.55
2023-01-30T20:32:16.111Z,5.03
2023-01-30T20:33:47.616Z,5.26
2023-01-30T20:35:19.360Z,4.89
2023-01-30T20:36:51.072Z,5.22